createdAt,value
2018-03-06T00:00:07.561Z,6.78
2018-03-06T00:02:36.858Z,6.78
2018-03-06T00:05:05.159Z,6.46
2018-03-06T00:07:33.413Z,6.46
2018-03-06T00:10:02.328Z,6.53
2018-03-06T00:12:30.739Z,6.75
2018-03-06T00:14:59.963Z,6.56
2018-03-06T00:17:28.253Z,6.40
2018-03-06T00:19:56.564Z,6.39
2018-03-06T00:22:25.735Z,6.28
2018-03-06T00:24:54.076Z,6.48
2018-03-06T00:27:22.367Z,6.26
2018-03-06T00:29:50.780Z,6.27
2018-03-06T00:32:19.050Z,6.08
2018-03-06T00:34:47.324Z,6.21
2018-03-06T00:37:15.597Z,6.51
2018-03-06T00:39:43.845Z,6.38
2018-03-06T00:42:12.141Z,6.25
2018-03-06T00:44:40.396Z,6.32
2018-03-06T00:47:09.538Z,6.41
2018-03-06T00:49:37.781Z,6.34
2018-03-06T00:52:06.051Z,6.27
2018-03-06T00:54:34.319Z,6.31
2018-03-06T00:57:02.601Z,6.29
2018-03-06T00:59:30.901Z,6.47
2018-03-06T01:02:00.061Z,6.55
2018-03-06T01:04:28.920Z,6.49
2018-03-06T01:06:57.969Z,6.33
2018-03-06T01:09:26.374Z,6.20
2018-03-06T01:11:54.625Z,6.19
2018-03-06T01:14:22.932Z,6.26
2018-03-06T01:16:51.169Z,6.42
2018-03-06T01:19:19.473Z,6.18
2018-03-06T01:21:47.919Z,6.17
2018-03-06T01:24:16.263Z,6.07
2018-03-06T01:26:44.552Z,6.00
2018-03-06T01:29:12.814Z,5.94
2018-03-06T01:34:08.663Z,5.71
2018-03-06T01:36:36.952Z,5.81
2018-03-06T01:41:33.657Z,5.70
2018-03-06T01:44:02.836Z,5.52
2018-03-06T01:46:31.896Z,5.37
2018-03-06T01:49:00.182Z,5.34
2018-03-06T01:54:36.804Z,5.21
2018-03-06T01:57:05.946Z,5.31
2018-03-06T01:59:34.204Z,5.70
2018-03-06T02:02:02.474Z,5.73
2018-03-06T02:04:30.877Z,5.82
2018-03-06T02:07:00.239Z,6.41
2018-03-06T02:09:28.509Z,6.52
2018-03-06T02:11:59.133Z,6.29
2018-03-06T02:14:29.163Z,6.52
2018-03-06T02:16:58.286Z,6.32
2018-03-06T02:19:26.617Z,6.22
2018-03-06T02:21:55.702Z,6.47
2018-03-06T02:24:23.982Z,6.64
2018-03-06T02:26:54.231Z,6.74
2018-03-06T02:31:57.901Z,6.92
2018-03-06T02:34:26.172Z,6.81
2018-03-06T02:36:54.419Z,6.77
2018-03-06T02:39:23.596Z,6.80
2018-03-06T02:41:51.870Z,6.71
2018-03-06T02:44:20.808Z,6.71
2018-03-06T02:46:49.155Z,6.63
2018-03-06T02:49:18.347Z,6.41
2018-03-06T02:51:46.622Z,6.05
2018-03-06T02:54:14.947Z,5.88
2018-03-06T02:56:44.719Z,5.86
2018-03-06T02:59:12.980Z,5.76
2018-03-06T03:01:41.954Z,5.93
2018-03-06T03:04:10.210Z,5.84
2018-03-06T03:06:38.506Z,6.01
2018-03-06T03:09:06.754Z,6.04
2018-03-06T03:11:35.832Z,5.98
2018-03-06T03:14:04.135Z,5.98
2018-03-06T03:16:33.174Z,6.15
2018-03-06T03:19:01.449Z,6.11
2018-03-06T03:21:29.708Z,6.10
2018-03-06T03:23:57.977Z,6.11
2018-03-06T03:26:26.230Z,6.11
2018-03-06T03:28:55.280Z,6.02
2018-03-06T03:31:23.529Z,5.94
2018-03-06T03:33:51.784Z,5.91
2018-03-06T03:36:20.058Z,5.86
2018-03-06T03:38:49.806Z,5.81
2018-03-06T03:41:18.090Z,5.51
2018-03-06T03:43:46.458Z,5.51
2018-03-06T03:46:14.751Z,5.77
2018-03-06T03:48:43.023Z,5.45
2018-03-06T03:51:11.347Z,5.51
2018-03-06T03:53:40.570Z,5.39
2018-03-06T03:56:08.836Z,5.25
2018-03-06T03:58:37.123Z,5.09
2018-03-06T04:01:05.374Z,5.12
2018-03-06T04:03:33.664Z,5.04
2018-03-06T04:06:03.219Z,4.91
2018-03-06T04:08:31.595Z,5.04
2018-03-06T04:11:00.005Z,4.91
2018-03-06T04:13:28.305Z,4.60
2018-03-06T04:15:56.572Z,4.57
2018-03-06T04:18:24.959Z,4.67
2018-03-06T04:20:53.237Z,4.52
2018-03-06T04:23:21.532Z,4.58
2018-03-06T04:25:49.815Z,4.87
2018-03-06T04:28:20.160Z,4.87
2018-03-06T04:30:49.206Z,4.77
2018-03-06T04:33:17.473Z,4.65
2018-03-06T04:35:45.996Z,4.72
2018-03-06T04:38:14.256Z,4.51
2018-03-06T04:40:42.528Z,4.65
2018-03-06T04:43:10.780Z,4.80
2018-03-06T04:45:39.035Z,4.77
2018-03-06T04:48:08.013Z,4.70
2018-03-06T04:50:37.063Z,4.58
2018-03-06T04:53:05.370Z,4.65
2018-03-06T04:55:34.517Z,4.45
2018-03-06T04:58:02.796Z,4.35
2018-03-06T05:00:31.231Z,4.40
2018-03-06T05:03:00.330Z,4.53
2018-03-06T05:05:28.619Z,4.36
2018-03-06T05:07:56.939Z,4.29
2018-03-06T05:10:26.183Z,4.38
2018-03-06T05:12:54.545Z,4.39
2018-03-06T05:15:23.639Z,4.32
2018-03-06T05:17:52.737Z,4.20
2018-03-06T05:20:21.132Z,3.94
2018-03-06T05:22:49.880Z,4.15
2018-03-06T05:25:18.498Z,4.02
2018-03-06T05:27:46.755Z,3.94
2018-03-06T05:30:15.889Z,4.06
2018-03-06T05:32:44.479Z,4.05
2018-03-06T05:35:12.758Z,4.04
2018-03-06T05:37:41.024Z,4.05
2018-03-06T05:40:09.437Z,4.20
2018-03-06T05:42:37.742Z,3.98
2018-03-06T05:45:07.070Z,3.77
2018-03-06T05:47:35.351Z,3.88
2018-03-06T05:50:03.799Z,4.20
2018-03-06T05:52:32.834Z,4.08
2018-03-06T05:55:01.106Z,3.86
2018-03-06T05:57:29.364Z,3.77
2018-03-06T05:59:57.870Z,3.75
2018-03-06T06:02:26.151Z,3.83
2018-03-06T06:04:55.931Z,3.90
2018-03-06T06:07:24.224Z,3.81
2018-03-06T06:09:53.447Z,3.76
2018-03-06T06:12:21.923Z,3.84
2018-03-06T06:14:50.999Z,3.66
2018-03-06T06:17:19.234Z,3.85
2018-03-06T06:19:48.407Z,3.82
2018-03-06T06:22:18.255Z,3.68
2018-03-06T06:24:48.066Z,3.67
2018-03-06T06:27:16.349Z,3.70
2018-03-06T06:29:44.602Z,3.68
2018-03-06T06:32:14.633Z,3.51
2018-03-06T06:34:42.913Z,3.75
2018-03-06T06:37:11.239Z,3.66
2018-03-06T06:39:41.142Z,3.53
2018-03-06T06:42:09.428Z,3.45
2018-03-06T06:44:38.490Z,3.65
2018-03-06T06:47:06.760Z,3.64
2018-03-06T06:49:35.033Z,3.83
2018-03-06T06:52:04.188Z,4.42
2018-03-06T06:54:32.519Z,4.71
2018-03-06T06:57:00.924Z,4.72
2018-03-06T06:59:30.060Z,4.50
2018-03-06T07:01:58.385Z,4.34
2018-03-06T07:04:26.770Z,4.39
2018-03-06T07:06:55.067Z,4.35
2018-03-06T07:09:24.219Z,4.31
2018-03-06T07:11:52.510Z,4.61
2018-03-06T07:14:21.669Z,4.54
2018-03-06T07:16:50.553Z,4.40
2018-03-06T07:19:18.834Z,4.42
2018-03-06T07:21:50.931Z,5.00
2018-03-06T07:24:19.273Z,4.71
2018-03-06T07:26:48.193Z,4.79
2018-03-06T07:29:16.466Z,4.96
2018-03-06T07:31:46.304Z,5.35
2018-03-06T07:34:15.598Z,5.11
2018-03-06T07:36:47.631Z,4.95
2018-03-06T07:39:15.991Z,5.27
2018-03-06T07:41:46.915Z,5.11
2018-03-06T07:44:15.141Z,5.56
2018-03-06T07:46:43.390Z,5.51
2018-03-06T07:49:11.911Z,5.56
2018-03-06T07:51:40.939Z,5.77
2018-03-06T07:54:09.215Z,5.59
2018-03-06T07:56:38.831Z,5.94
2018-03-06T07:59:07.370Z,5.70
2018-03-06T08:01:35.774Z,5.58
2018-03-06T08:04:04.251Z,5.85
2018-03-06T08:06:33.766Z,5.84
2018-03-06T08:09:02.156Z,5.58
2018-03-06T08:11:31.358Z,5.85
2018-03-06T08:13:59.980Z,5.86
2018-03-06T08:16:28.372Z,6.00
2018-03-06T08:18:58.578Z,6.15
2018-03-06T08:21:28.954Z,6.53
2018-03-06T08:23:57.244Z,6.43
2018-03-06T08:26:27.106Z,6.19
2018-03-06T08:28:55.604Z,6.49
2018-03-06T08:31:24.663Z,6.51
2018-03-06T08:33:54.023Z,6.64
2018-03-06T08:36:22.486Z,6.56
2018-03-06T08:38:50.979Z,6.71
2018-03-06T08:41:20.759Z,6.85
2018-03-06T08:43:50.400Z,6.52
2018-03-06T08:46:18.675Z,6.52
2018-03-06T08:48:46.936Z,6.99
2018-03-06T08:51:15.403Z,7.28
2018-03-06T08:53:43.666Z,7.38
2018-03-06T08:56:11.974Z,7.55
2018-03-06T08:58:40.940Z,7.55
2018-03-06T09:01:09.255Z,7.32
2018-03-06T09:03:38.426Z,7.16
2018-03-06T09:06:06.713Z,7.45
2018-03-06T09:08:35.814Z,7.38
2018-03-06T09:11:04.112Z,7.78
2018-03-06T09:13:32.419Z,7.85
2018-03-06T09:16:01.449Z,8.29
2018-03-06T09:18:29.751Z,8.07
2018-03-06T09:20:58.011Z,8.02
2018-03-06T09:23:26.337Z,7.74
2018-03-06T09:25:54.840Z,7.69
2018-03-06T09:28:23.100Z,7.85
2018-03-06T09:30:52.462Z,7.75
2018-03-06T09:33:20.724Z,7.82
2018-03-06T09:35:49.001Z,8.09
2018-03-06T09:38:17.308Z,8.09
2018-03-06T09:40:46.353Z,8.25
2018-03-06T09:43:14.616Z,8.11
2018-03-06T09:45:42.973Z,8.14
2018-03-06T09:48:12.076Z,8.21
2018-03-06T09:50:40.334Z,8.60
2018-03-06T09:53:08.654Z,8.79
2018-03-06T09:55:37.053Z,8.92
2018-03-06T09:58:05.518Z,8.84
2018-03-06T10:00:33.879Z,8.35
2018-03-06T10:03:02.588Z,9.02
2018-03-06T10:05:30.718Z,9.31
2018-03-06T10:07:58.998Z,9.59
2018-03-06T10:10:27.286Z,9.34
2018-03-06T10:12:55.733Z,9.15
2018-03-06T10:15:24.014Z,9.42
2018-03-06T10:17:52.405Z,9.31
2018-03-06T10:20:20.700Z,9.22
2018-03-06T10:22:49.239Z,8.86
2018-03-06T10:25:17.627Z,8.96
2018-03-06T10:27:45.962Z,9.01
2018-03-06T10:30:14.249Z,8.93
2018-03-06T10:32:42.765Z,9.11
2018-03-06T10:35:11.090Z,8.97
2018-03-06T10:37:39.358Z,9.08
2018-03-06T10:40:07.803Z,8.94
2018-03-06T10:42:36.191Z,9.17
2018-03-06T10:45:04.734Z,9.03
2018-03-06T10:47:34.773Z,9.01
2018-03-06T10:50:03.073Z,8.89
2018-03-06T10:52:31.363Z,8.84
2018-03-06T10:54:59.712Z,9.00
2018-03-06T10:57:28.013Z,9.00
2018-03-06T10:59:56.275Z,9.01
2018-03-06T11:02:32.153Z,9.24
2018-03-06T11:05:01.802Z,9.27
2018-03-06T11:07:31.912Z,9.16
2018-03-06T11:10:00.414Z,9.50
2018-03-06T11:12:28.964Z,9.37
2018-03-06T11:14:58.030Z,9.27
2018-03-06T11:17:26.569Z,9.25
2018-03-06T11:19:54.850Z,9.06
2018-03-06T11:22:23.106Z,9.10
2018-03-06T11:24:51.449Z,9.25
2018-03-06T11:27:20.772Z,9.40
2018-03-06T11:29:49.311Z,9.36
2018-03-06T11:32:18.377Z,9.27
2018-03-06T11:34:46.644Z,9.21
2018-03-06T11:37:15.070Z,9.59
2018-03-06T11:39:43.552Z,9.52
2018-03-06T11:42:11.904Z,9.42
2018-03-06T11:44:42.122Z,9.40
2018-03-06T11:47:10.527Z,9.36
2018-03-06T11:49:38.827Z,9.52
2018-03-06T11:52:07.136Z,9.60
2018-03-06T11:54:35.619Z,9.52
2018-03-06T11:57:05.415Z,9.43
2018-03-06T11:59:33.699Z,9.59
2018-03-06T12:02:02.096Z,9.75
2018-03-06T12:04:30.359Z,9.79
2018-03-06T12:06:58.794Z,9.86
2018-03-06T12:09:27.209Z,10.12
2018-03-06T12:11:55.524Z,10.51
2018-03-06T12:14:24.543Z,10.59
2018-03-06T12:16:53.584Z,10.80
2018-03-06T12:19:22.568Z,10.81
2018-03-06T12:21:50.860Z,10.93
2018-03-06T12:24:19.241Z,10.86
2018-03-06T12:26:48.620Z,11.15
2018-03-06T12:29:16.968Z,11.15
2018-03-06T12:31:45.401Z,11.05
2018-03-06T12:34:13.709Z,10.76
2018-03-06T12:36:42.834Z,9.97
2018-03-06T12:39:13.276Z,10.45
2018-03-06T12:41:41.642Z,10.36
2018-03-06T12:44:09.907Z,10.25
2018-03-06T12:46:40.449Z,10.35
2018-03-06T12:49:08.765Z,10.53
2018-03-06T12:51:37.021Z,10.61
2018-03-06T12:54:05.337Z,10.94
2018-03-06T12:56:34.618Z,11.11
2018-03-06T12:59:02.944Z,11.21
2018-03-06T13:01:31.220Z,11.17
2018-03-06T13:03:59.570Z,10.85
2018-03-06T13:06:27.946Z,10.96
2018-03-06T13:08:57.007Z,10.93
2018-03-06T13:11:25.651Z,11.41
2018-03-06T13:13:55.751Z,11.38
2018-03-06T13:16:24.078Z,11.28
2018-03-06T13:18:52.376Z,11.41
2018-03-06T13:21:21.435Z,11.77
2018-03-06T13:23:49.786Z,11.75
2018-03-06T13:26:20.915Z,12.11
2018-03-06T13:28:49.363Z,11.93
2018-03-06T13:31:17.683Z,11.69
2018-03-06T13:33:47.370Z,11.73
2018-03-06T13:36:17.586Z,11.67
2018-03-06T13:38:46.241Z,11.44
2018-03-06T13:41:17.093Z,11.60
2018-03-06T13:43:46.255Z,11.45
2018-03-06T13:46:20.168Z,11.48
2018-03-06T13:48:50.711Z,11.53
2018-03-06T13:51:19.147Z,11.45
2018-03-06T13:53:47.484Z,11.89
2018-03-06T13:56:15.806Z,11.97
2018-03-06T13:58:45.049Z,11.69
2018-03-06T14:01:13.610Z,11.68
2018-03-06T14:03:41.876Z,11.79
2018-03-06T14:06:10.195Z,11.79
2018-03-06T14:08:40.071Z,11.53
2018-03-06T14:11:08.343Z,11.49
2018-03-06T14:13:36.653Z,11.60
2018-03-06T14:16:06.096Z,11.67
2018-03-06T14:18:35.213Z,11.69
2018-03-06T14:21:03.672Z,11.87
2018-03-06T14:23:31.980Z,11.68
2018-03-06T14:26:00.319Z,11.67
2018-03-06T14:28:29.241Z,11.85
2018-03-06T14:30:57.523Z,11.92
2018-03-06T14:33:26.796Z,11.61
2018-03-06T14:35:56.212Z,11.79
2018-03-06T14:38:24.554Z,12.13
2018-03-06T14:40:53.077Z,12.23
2018-03-06T14:43:21.519Z,12.44
2018-03-06T14:45:50.963Z,12.48
2018-03-06T14:48:19.510Z,12.38
2018-03-06T14:50:47.878Z,12.41
2018-03-06T14:53:16.276Z,12.30
2018-03-06T14:55:44.606Z,12.27
2018-03-06T14:58:13.406Z,12.19
2018-03-06T15:00:41.753Z,12.20
2018-03-06T15:03:10.897Z,12.23
2018-03-06T15:05:39.193Z,12.22
2018-03-06T15:08:07.624Z,12.21
2018-03-06T15:10:36.622Z,12.12
2018-03-06T15:13:05.021Z,11.89
2018-03-06T15:15:33.679Z,12.10
2018-03-06T15:18:02.318Z,12.11
2018-03-06T15:20:30.687Z,12.05
2018-03-06T15:22:59.094Z,12.09
2018-03-06T15:25:27.700Z,12.18
2018-03-06T15:27:57.769Z,11.97
2018-03-06T15:30:26.053Z,11.98
2018-03-06T15:32:54.904Z,11.85
2018-03-06T15:35:23.315Z,11.88
2018-03-06T15:37:52.061Z,11.86
2018-03-06T15:40:20.792Z,11.81
2018-03-06T15:42:49.217Z,11.74
2018-03-06T15:45:18.047Z,11.76
2018-03-06T15:47:46.436Z,11.77
2018-03-06T15:50:14.972Z,11.62
2018-03-06T15:52:43.265Z,11.80
2018-03-06T15:55:12.169Z,11.56
2018-03-06T15:57:40.428Z,11.76
2018-03-06T16:00:09.136Z,11.69
2018-03-06T16:02:37.439Z,11.68
2018-03-06T16:05:06.508Z,11.76
2018-03-06T16:07:34.805Z,11.65
2018-03-06T16:10:04.874Z,11.46
2018-03-06T16:12:33.157Z,11.47
2018-03-06T16:15:02.272Z,11.48
2018-03-06T16:17:30.624Z,11.33
2018-03-06T16:19:58.901Z,11.36
2018-03-06T16:22:27.195Z,11.13
2018-03-06T16:24:55.750Z,11.00
2018-03-06T16:27:24.794Z,11.01
2018-03-06T16:29:54.143Z,10.87
2018-03-06T16:32:22.435Z,10.79
2018-03-06T16:34:51.427Z,10.75
2018-03-06T16:37:19.717Z,10.69
2018-03-06T16:39:50.216Z,10.58
2018-03-06T16:42:18.504Z,10.64
2018-03-06T16:44:46.923Z,10.52
2018-03-06T16:47:16.248Z,10.59
2018-03-06T16:49:44.510Z,10.43
2018-03-06T16:52:14.296Z,10.29
2018-03-06T16:54:42.581Z,10.15
2018-03-06T16:57:11.809Z,10.11
2018-03-06T16:59:40.116Z,10.08
2018-03-06T17:02:08.412Z,9.92
2018-03-06T17:04:36.712Z,9.79
2018-03-06T17:07:06.576Z,9.67
2018-03-06T17:09:34.864Z,9.60
2018-03-06T17:12:03.132Z,9.84
2018-03-06T17:14:31.452Z,10.05
2018-03-06T17:17:05.812Z,10.23
2018-03-06T17:19:34.084Z,9.95
2018-03-06T17:22:02.336Z,9.66
2018-03-06T17:24:30.621Z,9.52
2018-03-06T17:26:58.894Z,9.37
2018-03-06T17:29:28.084Z,9.19
2018-03-06T17:31:56.352Z,9.06
2018-03-06T17:34:24.752Z,9.00
2018-03-06T17:36:53.089Z,8.88
2018-03-06T17:39:24.870Z,8.85
2018-03-06T17:41:53.376Z,8.80
2018-03-06T17:44:21.715Z,8.71
2018-03-06T17:46:50.034Z,8.64
2018-03-06T17:49:18.367Z,8.62
2018-03-06T17:51:46.864Z,8.57
2018-03-06T17:54:15.130Z,8.57
2018-03-06T17:56:43.739Z,8.48
2018-03-06T17:59:12.008Z,8.49
2018-03-06T18:01:40.444Z,8.45
2018-03-06T18:04:09.611Z,8.37
2018-03-06T18:06:37.953Z,8.46
2018-03-06T18:09:06.429Z,8.60
2018-03-06T18:11:34.827Z,8.55
2018-03-06T18:14:03.104Z,8.61
2018-03-06T18:16:31.441Z,8.62
2018-03-06T18:18:59.798Z,8.71
2018-03-06T18:21:29.598Z,8.76
2018-03-06T18:23:58.712Z,8.70
2018-03-06T18:26:27.781Z,8.80
2018-03-06T18:28:57.474Z,8.96
2018-03-06T18:31:26.045Z,8.97
2018-03-06T18:33:54.719Z,8.90
2018-03-06T18:36:23.918Z,9.04
2018-03-06T18:38:52.197Z,8.98
2018-03-06T18:41:20.871Z,8.93
2018-03-06T18:43:49.377Z,9.11
2018-03-06T18:46:17.636Z,9.03
2018-03-06T18:48:46.525Z,8.97
2018-03-06T18:51:14.900Z,9.03
2018-03-06T18:53:44.147Z,9.06
2018-03-06T18:56:13.823Z,9.08
2018-03-06T18:58:43.394Z,9.12
2018-03-06T19:04:58.351Z,9.19
2018-03-06T19:07:27.456Z,9.24
2018-03-06T19:09:56.804Z,9.27
2018-03-06T19:12:26.500Z,9.23
2018-03-06T19:14:56.395Z,9.32
2018-03-06T19:17:26.082Z,9.32
2018-03-06T19:19:55.036Z,9.34
2018-03-06T19:22:24.152Z,9.32
2018-03-06T19:24:53.413Z,9.32
2018-03-06T19:27:22.079Z,9.29
2018-03-06T19:29:51.140Z,9.27
2018-03-06T19:32:20.160Z,9.25
2018-03-06T19:34:48.731Z,9.26
2018-03-06T19:37:17.197Z,9.27
2018-03-06T19:39:46.914Z,9.27
2018-03-06T19:42:15.952Z,9.26
2018-03-06T19:44:44.726Z,9.25
2018-03-06T19:47:13.417Z,9.23
2018-03-06T19:49:41.916Z,9.24
2018-03-06T19:52:10.399Z,9.23
2018-03-06T19:54:39.147Z,9.23
2018-03-06T19:57:08.960Z,9.19
2018-03-06T19:59:37.890Z,9.14
2018-03-06T20:02:06.910Z,9.15
2018-03-06T20:04:36.168Z,9.21
2018-03-06T20:07:06.443Z,9.15
2018-03-06T20:09:34.894Z,9.08
2018-03-06T20:12:03.440Z,9.04
2018-03-06T20:14:37.410Z,8.95
2018-03-06T20:17:06.670Z,8.92
2018-03-06T20:19:41.420Z,8.84
2018-03-06T20:22:10.053Z,8.90
2018-03-06T20:24:44.079Z,8.89
2018-03-06T20:27:12.660Z,8.87
2018-03-06T20:29:42.706Z,8.89
2018-03-06T20:32:16.996Z,8.79
2018-03-06T20:34:46.984Z,8.83
2018-03-06T20:37:16.480Z,8.79
2018-03-06T20:39:50.650Z,8.80
2018-03-06T20:42:19.285Z,8.73
2018-03-06T20:44:48.021Z,8.73
2018-03-06T20:47:22.142Z,8.72
2018-03-06T20:49:50.871Z,8.70
2018-03-06T20:52:19.250Z,8.55
2018-03-06T20:54:53.227Z,8.60
2018-03-06T20:57:21.938Z,8.64
2018-03-06T20:59:50.507Z,8.60
2018-03-06T21:02:19.189Z,8.51
2018-03-06T21:04:47.684Z,8.49
2018-03-06T21:07:16.388Z,8.43
2018-03-06T21:09:45.747Z,8.41
2018-03-06T21:12:14.292Z,8.40
2018-03-06T21:14:44.182Z,8.44
2018-03-06T21:17:13.108Z,8.44
2018-03-06T21:19:42.275Z,8.40
2018-03-06T21:22:14.292Z,8.42
2018-03-06T21:24:42.592Z,8.48
2018-03-06T21:27:10.891Z,8.49
2018-03-06T21:29:41.048Z,8.39
2018-03-06T21:32:10.205Z,8.42
2018-03-06T21:34:38.639Z,8.35
2018-03-06T21:37:07.216Z,8.29
2018-03-06T21:39:36.463Z,8.30
2018-03-06T21:42:05.026Z,8.19
2018-03-06T21:44:33.700Z,8.27
2018-03-06T21:47:02.159Z,8.29
2018-03-06T21:49:30.462Z,8.32
2018-03-06T21:51:59.190Z,8.35
2018-03-06T21:54:27.827Z,8.38
2018-03-06T21:56:56.747Z,8.32
2018-03-06T21:59:25.573Z,8.37
2018-03-06T22:01:54.841Z,8.32
2018-03-06T22:04:23.896Z,8.29
2018-03-06T22:06:53.666Z,8.25
2018-03-06T22:09:22.402Z,8.32
2018-03-06T22:11:51.960Z,8.28
2018-03-06T22:14:21.927Z,8.26
2018-03-06T22:16:51.069Z,8.25
2018-03-06T22:19:19.934Z,8.19
2018-03-06T22:21:48.347Z,8.25
2018-03-06T22:24:16.855Z,8.25
2018-03-06T22:26:45.300Z,8.25
2018-03-06T22:29:13.714Z,8.22
2018-03-06T22:31:42.164Z,8.28
2018-03-06T22:34:10.486Z,8.27
2018-03-06T22:36:38.984Z,8.33
2018-03-06T22:39:07.329Z,8.25
2018-03-06T22:41:35.809Z,8.30
2018-03-06T22:44:04.089Z,8.31
2018-03-06T22:46:33.302Z,8.26
2018-03-06T22:49:01.631Z,8.24
2018-03-06T22:51:29.931Z,8.36
2018-03-06T22:53:58.218Z,8.30
2018-03-06T22:56:26.769Z,8.27
2018-03-06T22:58:55.841Z,8.29
2018-03-06T23:01:25.232Z,8.28
2018-03-06T23:03:55.312Z,8.24
2018-03-06T23:06:25.933Z,8.24
2018-03-06T23:08:54.400Z,8.28
2018-03-06T23:11:23.651Z,8.22
2018-03-06T23:13:52.808Z,8.21
2018-03-06T23:16:21.869Z,8.14
2018-03-06T23:18:50.202Z,8.17
2018-03-06T23:21:18.622Z,8.18
2018-03-06T23:23:47.055Z,8.05
2018-03-06T23:26:15.408Z,8.07
2018-03-06T23:28:44.612Z,8.13
2018-03-06T23:31:13.541Z,8.14
2018-03-06T23:33:44.490Z,8.13
2018-03-06T23:36:12.828Z,8.12
2018-03-06T23:38:41.097Z,8.11
2018-03-06T23:41:11.962Z,8.12
2018-03-06T23:43:41.156Z,8.10
2018-03-06T23:46:10.142Z,8.04
2018-03-06T23:48:38.656Z,8.06
2018-03-06T23:51:07.888Z,8.01
2018-03-06T23:53:36.175Z,8.04
2018-03-06T23:56:05.047Z,7.97
2018-03-06T23:58:33.558Z,7.99
